sensor_id;sensor_type;location;lat;lon;timestamp;P1;durP1;ratioP1;P2;durP2;ratioP2
1613;SDS011;800;48.824;9.346;2022-12-01T00:00:43;21.80;;;12.60;;
1613;SDS011;800;48.824;9.346;2022-12-01T00:03:08;19.97;;;11.93;;
1613;SDS011;800;48.824;9.346;2022-12-01T00:05:34;18.53;;;12.70;;
1613;SDS011;800;48.824;9.346;2022-12-01T00:08:00;18.50;;;12.60;;
1613;SDS011;800;48.824;9.346;2022-12-01T00:10:26;22.17;;;13.10;;
1613;SDS011;800;48.824;9.346;2022-12-01T00:12:53;19.33;;;13.13;;
1613;SDS011;800;48.824;9.346;2022-12-01T00:15:20;18.47;;;12.53;;
1613;SDS011;800;48.824;9.346;2022-12-01T00:17:47;18.30;;;11.83;;
1613;SDS011;800;48.824;9.346;2022-12-01T00:20:14;19.20;;;12.70;;
1613;SDS011;800;48.824;9.346;2022-12-01T00:22:42;20.67;;;13.00;;
1613;SDS011;800;48.824;9.346;2022-12-01T00:25:09;22.00;;;13.80;;
1613;SDS011;800;48.824;9.346;2022-12-01T00:27:35;17.97;;;12.53;;
1613;SDS011;800;48.824;9.346;2022-12-01T00:30:00;18.83;;;13.20;;
1613;SDS011;800;48.824;9.346;2022-12-01T00:32:28;18.93;;;13.23;;
1613;SDS011;800;48.824;9.346;2022-12-01T00:34:54;21.77;;;14.50;;
1613;SDS011;800;48.824;9.346;2022-12-01T00:37:20;23.50;;;14.70;;
1613;SDS011;800;48.824;9.346;2022-12-01T00:39:45;24.30;;;14.70;;
1613;SDS011;800;48.824;9.346;2022-12-01T00:42:11;23.00;;;14.97;;
1613;SDS011;800;48.824;9.346;2022-12-01T00:44:36;20.43;;;13.30;;
1613;SDS011;800;48.824;9.346;2022-12-01T00:47:02;17.73;;;12.40;;
1613;SDS011;800;48.824;9.346;2022-12-01T00:49:27;21.70;;;15.30;;
1613;SDS011;800;48.824;9.346;2022-12-01T00:51:53;21.67;;;14.60;;
1613;SDS011;800;48.824;9.346;2022-12-01T00:54:18;19.27;;;13.10;;
1613;SDS011;800;48.824;9.346;2022-12-01T00:56:44;20.10;;;14.37;;
1613;SDS011;800;48.824;9.346;2022-12-01T00:59:10;17.83;;;12.47;;
1613;SDS011;800;48.824;9.346;2022-12-01T01:01:35;18.60;;;13.10;;
1613;SDS011;800;48.824;9.346;2022-12-01T01:04:01;18.90;;;13.20;;
1613;SDS011;800;48.824;9.346;2022-12-01T01:06:27;16.57;;;11.70;;
1613;SDS011;800;48.824;9.346;2022-12-01T01:08:53;20.03;;;12.50;;
1613;SDS011;800;48.824;9.346;2022-12-01T01:11:19;16.97;;;11.87;;
1613;SDS011;800;48.824;9.346;2022-12-01T01:13:44;19.03;;;12.90;;
1613;SDS011;800;48.824;9.346;2022-12-01T01:16:14;24.63;;;13.93;;
1613;SDS011;800;48.824;9.346;2022-12-01T01:18:44;21.23;;;13.47;;
1613;SDS011;800;48.824;9.346;2022-12-01T01:21:12;18.50;;;12.10;;
1613;SDS011;800;48.824;9.346;2022-12-01T01:23:39;19.77;;;12.63;;
1613;SDS011;800;48.824;9.346;2022-12-01T01:28:38;18.33;;;12.70;;
1613;SDS011;800;48.824;9.346;2022-12-01T01:31:06;19.50;;;12.73;;
1613;SDS011;800;48.824;9.346;2022-12-01T01:33:33;17.50;;;12.00;;
1613;SDS011;800;48.824;9.346;2022-12-01T01:35:59;16.60;;;11.40;;
1613;SDS011;800;48.824;9.346;2022-12-01T01:38:26;24.13;;;12.73;;
1613;SDS011;800;48.824;9.346;2022-12-01T01:40:51;17.93;;;12.60;;
1613;SDS011;800;48.824;9.346;2022-12-01T01:43:35;19.93;;;13.10;;
1613;SDS011;800;48.824;9.346;2022-12-01T01:46:05;19.60;;;12.93;;
1613;SDS011;800;48.824;9.346;2022-12-01T01:48:31;17.10;;;12.80;;
1613;SDS011;800;48.824;9.346;2022-12-01T01:50:58;21.60;;;14.00;;
1613;SDS011;800;48.824;9.346;2022-12-01T01:53:24;18.13;;;12.40;;
1613;SDS011;800;48.824;9.346;2022-12-01T01:55:50;19.00;;;12.63;;
1613;SDS011;800;48.824;9.346;2022-12-01T01:58:16;18.73;;;12.80;;
1613;SDS011;800;48.824;9.346;2022-12-01T02:00:43;20.50;;;12.70;;
1613;SDS011;800;48.824;9.346;2022-12-01T02:03:10;23.20;;;13.30;;
1613;SDS011;800;48.824;9.346;2022-12-01T02:05:39;18.50;;;12.80;;
1613;SDS011;800;48.824;9.346;2022-12-01T02:08:07;17.20;;;11.30;;
1613;SDS011;800;48.824;9.346;2022-12-01T02:18:42;21.20;;;13.60;;
1613;SDS011;800;48.824;9.346;2022-12-01T02:21:24;18.67;;;12.83;;
1613;SDS011;800;48.824;9.346;2022-12-01T02:31:56;20.07;;;13.90;;
1613;SDS011;800;48.824;9.346;2022-12-01T02:34:41;21.13;;;13.73;;
1613;SDS011;800;48.824;9.346;2022-12-01T02:40:04;20.70;;;13.07;;
1613;SDS011;800;48.824;9.346;2022-12-01T02:45:14;19.40;;;13.70;;
1613;SDS011;800;48.824;9.346;2022-12-01T02:47:45;22.47;;;14.10;;
1613;SDS011;800;48.824;9.346;2022-12-01T02:50:12;20.63;;;13.67;;
1613;SDS011;800;48.824;9.346;2022-12-01T02:52:38;18.77;;;13.03;;
1613;SDS011;800;48.824;9.346;2022-12-01T02:55:05;19.70;;;12.47;;
1613;SDS011;800;48.824;9.346;2022-12-01T02:57:30;22.07;;;13.57;;
1613;SDS011;800;48.824;9.346;2022-12-01T02:59:56;19.23;;;12.90;;
1613;SDS011;800;48.824;9.346;2022-12-01T03:02:34;18.53;;;13.23;;
1613;SDS011;800;48.824;9.346;2022-12-01T03:05:27;21.90;;;12.87;;
1613;SDS011;800;48.824;9.346;2022-12-01T03:08:00;19.47;;;12.90;;
1613;SDS011;800;48.824;9.346;2022-12-01T03:10:57;20.47;;;11.50;;
1613;SDS011;800;48.824;9.346;2022-12-01T03:16:07;20.03;;;12.10;;
1613;SDS011;800;48.824;9.346;2022-12-01T03:18:57;22.30;;;13.47;;
1613;SDS011;800;48.824;9.346;2022-12-01T03:24:49;20.40;;;13.27;;
1613;SDS011;800;48.824;9.346;2022-12-01T03:27:19;20.60;;;13.43;;
1613;SDS011;800;48.824;9.346;2022-12-01T03:29:49;21.30;;;13.50;;
1613;SDS011;800;48.824;9.346;2022-12-01T03:32:28;20.83;;;12.90;;
1613;SDS011;800;48.824;9.346;2022-12-01T03:35:04;21.43;;;13.40;;
1613;SDS011;800;48.824;9.346;2022-12-01T03:37:42;18.10;;;12.03;;
1613;SDS011;800;48.824;9.346;2022-12-01T03:40:16;21.43;;;14.10;;
1613;SDS011;800;48.824;9.346;2022-12-01T03:42:48;19.50;;;12.87;;
1613;SDS011;800;48.824;9.346;2022-12-01T03:45:33;21.27;;;13.63;;
1613;SDS011;800;48.824;9.346;2022-12-01T03:48:06;21.40;;;12.90;;
1613;SDS011;800;48.824;9.346;2022-12-01T03:50:35;18.87;;;12.40;;
1613;SDS011;800;48.824;9.346;2022-12-01T03:53:15;20.03;;;13.50;;
1613;SDS011;800;48.824;9.346;2022-12-01T03:55:45;23.50;;;13.90;;
1613;SDS011;800;48.824;9.346;2022-12-01T03:58:17;19.50;;;13.00;;
1613;SDS011;800;48.824;9.346;2022-12-01T04:00:47;20.03;;;14.00;;
1613;SDS011;800;48.824;9.346;2022-12-01T04:03:18;19.80;;;13.57;;
1613;SDS011;800;48.824;9.346;2022-12-01T04:05:46;20.63;;;13.20;;
1613;SDS011;800;48.824;9.346;2022-12-01T04:08:12;20.60;;;14.10;;
1613;SDS011;800;48.824;9.346;2022-12-01T04:10:38;18.70;;;12.30;;
1613;SDS011;800;48.824;9.346;2022-12-01T04:13:04;18.20;;;12.20;;
1613;SDS011;800;48.824;9.346;2022-12-01T04:15:29;23.80;;;13.47;;
1613;SDS011;800;48.824;9.346;2022-12-01T04:17:55;21.70;;;14.13;;
1613;SDS011;800;48.824;9.346;2022-12-01T04:20:20;21.50;;;11.70;;
1613;SDS011;800;48.824;9.346;2022-12-01T04:22:46;20.87;;;14.13;;
1613;SDS011;800;48.824;9.346;2022-12-01T04:25:12;19.80;;;13.80;;
1613;SDS011;800;48.824;9.346;2022-12-01T04:27:38;21.03;;;14.37;;
1613;SDS011;800;48.824;9.346;2022-12-01T04:30:04;18.50;;;12.50;;
1613;SDS011;800;48.824;9.346;2022-12-01T04:32:31;23.50;;;14.20;;
1613;SDS011;800;48.824;9.346;2022-12-01T04:35:00;21.23;;;14.23;;
1613;SDS011;800;48.824;9.346;2022-12-01T04:37:26;18.47;;;11.60;;
1613;SDS011;800;48.824;9.346;2022-12-01T04:39:52;20.23;;;14.33;;
1613;SDS011;800;48.824;9.346;2022-12-01T04:42:17;17.23;;;12.70;;
1613;SDS011;800;48.824;9.346;2022-12-01T04:44:43;20.00;;;13.10;;
1613;SDS011;800;48.824;9.346;2022-12-01T04:47:08;19.63;;;13.70;;
1613;SDS011;800;48.824;9.346;2022-12-01T04:49:34;21.70;;;15.00;;
1613;SDS011;800;48.824;9.346;2022-12-01T04:52:01;24.73;;;14.60;;
1613;SDS011;800;48.824;9.346;2022-12-01T04:54:26;21.83;;;14.40;;
1613;SDS011;800;48.824;9.346;2022-12-01T04:56:52;20.63;;;14.60;;
1613;SDS011;800;48.824;9.346;2022-12-01T04:59:18;21.40;;;15.00;;
1613;SDS011;800;48.824;9.346;2022-12-01T05:01:43;22.40;;;14.73;;
1613;SDS011;800;48.824;9.346;2022-12-01T05:04:11;21.20;;;14.50;;
1613;SDS011;800;48.824;9.346;2022-12-01T05:06:38;24.27;;;15.53;;
1613;SDS011;800;48.824;9.346;2022-12-01T05:09:04;24.60;;;15.70;;
1613;SDS011;800;48.824;9.346;2022-12-01T05:11:29;20.50;;;14.00;;
1613;SDS011;800;48.824;9.346;2022-12-01T05:13:56;20.80;;;14.63;;
1613;SDS011;800;48.824;9.346;2022-12-01T05:16:24;21.27;;;14.37;;
1613;SDS011;800;48.824;9.346;2022-12-01T05:18:52;22.27;;;15.37;;
1613;SDS011;800;48.824;9.346;2022-12-01T05:21:39;20.90;;;13.50;;
1613;SDS011;800;48.824;9.346;2022-12-01T05:24:05;23.80;;;14.90;;
1613;SDS011;800;48.824;9.346;2022-12-01T05:26:32;21.43;;;14.10;;
1613;SDS011;800;48.824;9.346;2022-12-01T05:28:58;24.50;;;15.63;;
1613;SDS011;800;48.824;9.346;2022-12-01T05:31:23;23.37;;;14.33;;
1613;SDS011;800;48.824;9.346;2022-12-01T05:33:49;23.97;;;14.97;;
1613;SDS011;800;48.824;9.346;2022-12-01T05:36:14;23.30;;;15.27;;
1613;SDS011;800;48.824;9.346;2022-12-01T05:38:40;22.63;;;14.90;;
1613;SDS011;800;48.824;9.346;2022-12-01T05:41:06;21.73;;;14.20;;
1613;SDS011;800;48.824;9.346;2022-12-01T05:43:31;22.93;;;16.37;;
1613;SDS011;800;48.824;9.346;2022-12-01T05:45:57;23.10;;;14.97;;
1613;SDS011;800;48.824;9.346;2022-12-01T05:48:22;26.90;;;16.37;;
1613;SDS011;800;48.824;9.346;2022-12-01T05:50:48;25.87;;;15.10;;
1613;SDS011;800;48.824;9.346;2022-12-01T05:53:14;23.33;;;15.60;;
1613;SDS011;800;48.824;9.346;2022-12-01T05:55:39;21.07;;;14.60;;
1613;SDS011;800;48.824;9.346;2022-12-01T05:58:05;27.60;;;16.50;;
1613;SDS011;800;48.824;9.346;2022-12-01T06:00:32;22.10;;;15.80;;
1613;SDS011;800;48.824;9.346;2022-12-01T06:02:58;26.30;;;15.53;;
1613;SDS011;800;48.824;9.346;2022-12-01T06:05:23;23.00;;;15.70;;
1613;SDS011;800;48.824;9.346;2022-12-01T06:07:49;26.00;;;17.10;;
1613;SDS011;800;48.824;9.346;2022-12-01T06:10:14;23.50;;;16.10;;
1613;SDS011;800;48.824;9.346;2022-12-01T06:12:40;27.60;;;17.07;;
1613;SDS011;800;48.824;9.346;2022-12-01T06:15:06;24.87;;;16.50;;
1613;SDS011;800;48.824;9.346;2022-12-01T06:17:32;23.37;;;16.23;;
1613;SDS011;800;48.824;9.346;2022-12-01T06:19:58;27.77;;;16.60;;
1613;SDS011;800;48.824;9.346;2022-12-01T06:22:23;23.90;;;16.57;;
1613;SDS011;800;48.824;9.346;2022-12-01T06:24:49;26.47;;;16.30;;
1613;SDS011;800;48.824;9.346;2022-12-01T06:27:15;25.13;;;16.40;;
1613;SDS011;800;48.824;9.346;2022-12-01T06:29:40;22.20;;;15.20;;
1613;SDS011;800;48.824;9.346;2022-12-01T06:32:06;25.07;;;15.67;;
1613;SDS011;800;48.824;9.346;2022-12-01T06:34:31;24.27;;;14.80;;
1613;SDS011;800;48.824;9.346;2022-12-01T06:36:57;25.77;;;17.03;;
1613;SDS011;800;48.824;9.346;2022-12-01T06:39:23;26.67;;;17.37;;
1613;SDS011;800;48.824;9.346;2022-12-01T06:41:48;23.47;;;16.20;;
1613;SDS011;800;48.824;9.346;2022-12-01T06:44:14;24.60;;;15.30;;
1613;SDS011;800;48.824;9.346;2022-12-01T06:46:40;26.13;;;16.20;;
1613;SDS011;800;48.824;9.346;2022-12-01T06:49:08;25.67;;;17.40;;
1613;SDS011;800;48.824;9.346;2022-12-01T06:51:37;23.20;;;16.03;;
1613;SDS011;800;48.824;9.346;2022-12-01T06:54:03;23.03;;;15.47;;
1613;SDS011;800;48.824;9.346;2022-12-01T06:56:29;26.37;;;17.83;;
1613;SDS011;800;48.824;9.346;2022-12-01T06:58:54;23.70;;;16.50;;
1613;SDS011;800;48.824;9.346;2022-12-01T07:01:21;19.87;;;13.90;;
1613;SDS011;800;48.824;9.346;2022-12-01T07:03:47;22.70;;;15.90;;
1613;SDS011;800;48.824;9.346;2022-12-01T07:06:13;27.40;;;16.63;;
1613;SDS011;800;48.824;9.346;2022-12-01T07:08:39;23.90;;;16.07;;
1613;SDS011;800;48.824;9.346;2022-12-01T07:11:09;24.00;;;16.37;;
1613;SDS011;800;48.824;9.346;2022-12-01T07:13:38;25.27;;;17.07;;
1613;SDS011;800;48.824;9.346;2022-12-01T07:16:05;21.47;;;16.40;;
1613;SDS011;800;48.824;9.346;2022-12-01T07:18:32;26.37;;;17.57;;
1613;SDS011;800;48.824;9.346;2022-12-01T07:20:59;21.80;;;15.20;;
1613;SDS011;800;48.824;9.346;2022-12-01T07:23:26;21.63;;;15.60;;
1613;SDS011;800;48.824;9.346;2022-12-01T07:28:28;21.27;;;15.00;;
1613;SDS011;800;48.824;9.346;2022-12-01T07:31:11;25.80;;;16.63;;
1613;SDS011;800;48.824;9.346;2022-12-01T07:33:41;26.20;;;18.00;;
1613;SDS011;800;48.824;9.346;2022-12-01T07:36:07;25.50;;;16.17;;
1613;SDS011;800;48.824;9.346;2022-12-01T07:38:34;22.63;;;15.53;;
1613;SDS011;800;48.824;9.346;2022-12-01T07:41:03;19.93;;;15.10;;
1613;SDS011;800;48.824;9.346;2022-12-01T07:43:31;21.73;;;15.20;;
1613;SDS011;800;48.824;9.346;2022-12-01T07:46:04;24.47;;;17.40;;
1613;SDS011;800;48.824;9.346;2022-12-01T07:48:30;22.37;;;15.40;;
1613;SDS011;800;48.824;9.346;2022-12-01T07:50:56;21.97;;;16.53;;
1613;SDS011;800;48.824;9.346;2022-12-01T07:53:22;22.40;;;15.10;;
1613;SDS011;800;48.824;9.346;2022-12-01T07:55:48;20.73;;;14.57;;
1613;SDS011;800;48.824;9.346;2022-12-01T07:58:14;20.90;;;14.67;;
1613;SDS011;800;48.824;9.346;2022-12-01T08:00:40;24.07;;;16.80;;
1613;SDS011;800;48.824;9.346;2022-12-01T08:03:06;21.23;;;14.70;;
1613;SDS011;800;48.824;9.346;2022-12-01T08:05:31;23.23;;;16.17;;
1613;SDS011;800;48.824;9.346;2022-12-01T08:07:57;23.50;;;16.77;;
1613;SDS011;800;48.824;9.346;2022-12-01T08:10:23;21.80;;;15.90;;
1613;SDS011;800;48.824;9.346;2022-12-01T08:12:48;22.30;;;16.40;;
1613;SDS011;800;48.824;9.346;2022-12-01T08:15:14;24.10;;;16.20;;
1613;SDS011;800;48.824;9.346;2022-12-01T08:17:40;25.50;;;18.67;;
1613;SDS011;800;48.824;9.346;2022-12-01T08:20:05;24.50;;;17.67;;
1613;SDS011;800;48.824;9.346;2022-12-01T08:22:32;25.17;;;19.00;;
1613;SDS011;800;48.824;9.346;2022-12-01T08:24:57;23.37;;;17.77;;
1613;SDS011;800;48.824;9.346;2022-12-01T08:27:23;21.00;;;15.60;;
1613;SDS011;800;48.824;9.346;2022-12-01T08:29:49;23.37;;;16.40;;
1613;SDS011;800;48.824;9.346;2022-12-01T08:32:15;21.47;;;17.00;;
1613;SDS011;800;48.824;9.346;2022-12-01T08:34:41;20.87;;;15.30;;
1613;SDS011;800;48.824;9.346;2022-12-01T08:37:07;20.87;;;14.90;;
1613;SDS011;800;48.824;9.346;2022-12-01T08:39:33;22.60;;;14.90;;
1613;SDS011;800;48.824;9.346;2022-12-01T08:41:59;22.10;;;13.73;;
1613;SDS011;800;48.824;9.346;2022-12-01T08:44:24;21.77;;;14.80;;
1613;SDS011;800;48.824;9.346;2022-12-01T08:46:50;19.80;;;15.30;;
1613;SDS011;800;48.824;9.346;2022-12-01T08:49:15;22.43;;;15.77;;
1613;SDS011;800;48.824;9.346;2022-12-01T08:51:41;26.10;;;16.63;;
1613;SDS011;800;48.824;9.346;2022-12-01T08:54:08;21.60;;;14.47;;
1613;SDS011;800;48.824;9.346;2022-12-01T08:56:39;19.23;;;14.40;;
1613;SDS011;800;48.824;9.346;2022-12-01T08:59:06;22.63;;;15.30;;
1613;SDS011;800;48.824;9.346;2022-12-01T09:01:33;20.20;;;15.53;;
1613;SDS011;800;48.824;9.346;2022-12-01T09:04:00;21.83;;;15.27;;
1613;SDS011;800;48.824;9.346;2022-12-01T09:06:33;25.40;;;16.80;;
1613;SDS011;800;48.824;9.346;2022-12-01T09:09:03;24.20;;;15.63;;
1613;SDS011;800;48.824;9.346;2022-12-01T09:11:29;20.10;;;15.00;;
1613;SDS011;800;48.824;9.346;2022-12-01T09:13:54;18.97;;;14.23;;
1613;SDS011;800;48.824;9.346;2022-12-01T09:16:20;22.33;;;16.30;;
1613;SDS011;800;48.824;9.346;2022-12-01T09:18:46;22.23;;;15.63;;
1613;SDS011;800;48.824;9.346;2022-12-01T09:21:13;26.90;;;16.80;;
1613;SDS011;800;48.824;9.346;2022-12-01T09:23:40;20.23;;;15.00;;
1613;SDS011;800;48.824;9.346;2022-12-01T09:26:06;21.13;;;14.40;;
1613;SDS011;800;48.824;9.346;2022-12-01T09:28:32;20.90;;;14.33;;
1613;SDS011;800;48.824;9.346;2022-12-01T09:31:03;24.27;;;15.87;;
1613;SDS011;800;48.824;9.346;2022-12-01T09:33:29;22.13;;;14.50;;
1613;SDS011;800;48.824;9.346;2022-12-01T09:35:58;20.10;;;13.60;;
1613;SDS011;800;48.824;9.346;2022-12-01T09:38:24;20.37;;;14.13;;
1613;SDS011;800;48.824;9.346;2022-12-01T09:40:52;18.77;;;14.00;;
1613;SDS011;800;48.824;9.346;2022-12-01T09:43:19;19.97;;;15.73;;
1613;SDS011;800;48.824;9.346;2022-12-01T09:45:50;21.60;;;15.70;;
1613;SDS011;800;48.824;9.346;2022-12-01T09:48:24;23.30;;;15.37;;
1613;SDS011;800;48.824;9.346;2022-12-01T09:50:55;24.20;;;16.30;;
1613;SDS011;800;48.824;9.346;2022-12-01T09:53:22;18.73;;;13.47;;
1613;SDS011;800;48.824;9.346;2022-12-01T09:55:49;23.37;;;15.20;;
1613;SDS011;800;48.824;9.346;2022-12-01T09:58:24;23.83;;;16.07;;
1613;SDS011;800;48.824;9.346;2022-12-01T10:00:52;22.37;;;14.47;;
1613;SDS011;800;48.824;9.346;2022-12-01T10:06:01;21.10;;;15.17;;
1613;SDS011;800;48.824;9.346;2022-12-01T10:08:32;24.27;;;15.30;;
1613;SDS011;800;48.824;9.346;2022-12-01T10:11:04;19.83;;;14.03;;
1613;SDS011;800;48.824;9.346;2022-12-01T10:13:51;20.30;;;14.50;;
1613;SDS011;800;48.824;9.346;2022-12-01T10:16:17;23.80;;;15.97;;
1613;SDS011;800;48.824;9.346;2022-12-01T10:30:23;22.33;;;14.43;;
1613;SDS011;800;48.824;9.346;2022-12-01T10:32:53;22.30;;;14.73;;
1613;SDS011;800;48.824;9.346;2022-12-01T10:35:26;19.43;;;14.60;;
1613;SDS011;800;48.824;9.346;2022-12-01T10:38:00;20.37;;;14.43;;
1613;SDS011;800;48.824;9.346;2022-12-01T10:40:29;21.80;;;14.33;;
1613;SDS011;800;48.824;9.346;2022-12-01T10:42:59;19.70;;;14.43;;
1613;SDS011;800;48.824;9.346;2022-12-01T10:45:25;21.00;;;14.50;;
1613;SDS011;800;48.824;9.346;2022-12-01T10:50:43;20.33;;;14.33;;
1613;SDS011;800;48.824;9.346;2022-12-01T10:56:07;23.27;;;15.00;;
1613;SDS011;800;48.824;9.346;2022-12-01T11:01:15;19.90;;;14.00;;
1613;SDS011;800;48.824;9.346;2022-12-01T11:03:47;20.80;;;14.67;;
1613;SDS011;800;48.824;9.346;2022-12-01T11:06:15;21.00;;;15.40;;
1613;SDS011;800;48.824;9.346;2022-12-01T11:08:49;24.00;;;15.20;;
1613;SDS011;800;48.824;9.346;2022-12-01T11:11:36;21.47;;;14.63;;
1613;SDS011;800;48.824;9.346;2022-12-01T11:14:05;21.87;;;14.47;;
1613;SDS011;800;48.824;9.346;2022-12-01T11:16:42;21.77;;;15.97;;
1613;SDS011;800;48.824;9.346;2022-12-01T11:21:51;22.30;;;16.50;;
1613;SDS011;800;48.824;9.346;2022-12-01T11:27:20;25.67;;;17.73;;
1613;SDS011;800;48.824;9.346;2022-12-01T11:29:50;23.20;;;18.40;;
1613;SDS011;800;48.824;9.346;2022-12-01T11:32:25;23.27;;;17.00;;
1613;SDS011;800;48.824;9.346;2022-12-01T11:35:05;19.40;;;14.27;;
1613;SDS011;800;48.824;9.346;2022-12-01T11:37:50;19.53;;;14.40;;
1613;SDS011;800;48.824;9.346;2022-12-01T11:40:22;23.27;;;14.90;;
1613;SDS011;800;48.824;9.346;2022-12-01T11:42:54;20.17;;;13.60;;
1613;SDS011;800;48.824;9.346;2022-12-01T11:45:32;20.20;;;14.17;;
1613;SDS011;800;48.824;9.346;2022-12-01T11:48:11;18.23;;;13.10;;
1613;SDS011;800;48.824;9.346;2022-12-01T11:53:37;18.43;;;12.83;;
1613;SDS011;800;48.824;9.346;2022-12-01T11:56:14;19.00;;;12.83;;
1613;SDS011;800;48.824;9.346;2022-12-01T11:58:40;19.53;;;14.60;;
1613;SDS011;800;48.824;9.346;2022-12-01T12:10:19;18.00;;;13.37;;
1613;SDS011;800;48.824;9.346;2022-12-01T12:33:29;21.90;;;13.63;;
1613;SDS011;800;48.824;9.346;2022-12-01T12:38:53;18.67;;;12.73;;
1613;SDS011;800;48.824;9.346;2022-12-01T12:41:45;18.70;;;13.50;;
1613;SDS011;800;48.824;9.346;2022-12-01T12:44:29;19.23;;;14.27;;
1613;SDS011;800;48.824;9.346;2022-12-01T12:53:19;20.23;;;14.03;;
1613;SDS011;800;48.824;9.346;2022-12-01T12:55:48;21.20;;;13.60;;
1613;SDS011;800;48.824;9.346;2022-12-01T12:58:24;21.97;;;14.40;;
1613;SDS011;800;48.824;9.346;2022-12-01T13:01:10;22.17;;;14.50;;
1613;SDS011;800;48.824;9.346;2022-12-01T13:06:33;17.67;;;13.33;;
1613;SDS011;800;48.824;9.346;2022-12-01T13:11:58;20.43;;;12.90;;
1613;SDS011;800;48.824;9.346;2022-12-01T13:14:49;18.53;;;13.00;;
1613;SDS011;800;48.824;9.346;2022-12-01T13:17:25;18.13;;;13.07;;
1613;SDS011;800;48.824;9.346;2022-12-01T13:19:57;19.87;;;14.43;;
1613;SDS011;800;48.824;9.346;2022-12-01T13:22:26;18.50;;;13.73;;
1613;SDS011;800;48.824;9.346;2022-12-01T13:24:56;17.37;;;12.60;;
1613;SDS011;800;48.824;9.346;2022-12-01T13:27:22;19.37;;;12.43;;
1613;SDS011;800;48.824;9.346;2022-12-01T13:29:52;25.97;;;15.10;;
1613;SDS011;800;48.824;9.346;2022-12-01T13:32:27;20.27;;;13.37;;
1613;SDS011;800;48.824;9.346;2022-12-01T13:34:54;21.57;;;13.70;;
1613;SDS011;800;48.824;9.346;2022-12-01T13:37:28;18.70;;;12.50;;
1613;SDS011;800;48.824;9.346;2022-12-01T13:40:05;20.93;;;12.70;;
1613;SDS011;800;48.824;9.346;2022-12-01T13:42:49;20.60;;;12.63;;
1613;SDS011;800;48.824;9.346;2022-12-01T13:45:19;19.70;;;14.00;;
1613;SDS011;800;48.824;9.346;2022-12-01T13:53:23;21.80;;;14.40;;
1613;SDS011;800;48.824;9.346;2022-12-01T14:01:54;18.70;;;12.37;;
1613;SDS011;800;48.824;9.346;2022-12-01T14:06:37;19.40;;;12.83;;
1613;SDS011;800;48.824;9.346;2022-12-01T14:09:55;17.90;;;12.90;;
1613;SDS011;800;48.824;9.346;2022-12-01T14:12:20;18.57;;;13.17;;
1613;SDS011;800;48.824;9.346;2022-12-01T14:14:56;19.93;;;14.53;;
1613;SDS011;800;48.824;9.346;2022-12-01T14:19:50;21.00;;;13.83;;
1613;SDS011;800;48.824;9.346;2022-12-01T14:27:47;19.37;;;13.50;;
1613;SDS011;800;48.824;9.346;2022-12-01T14:39:12;20.67;;;13.23;;
1613;SDS011;800;48.824;9.346;2022-12-01T14:41:42;21.07;;;14.03;;
1613;SDS011;800;48.824;9.346;2022-12-01T14:47:01;19.23;;;13.53;;
1613;SDS011;800;48.824;9.346;2022-12-01T14:54:59;23.03;;;13.37;;
1613;SDS011;800;48.824;9.346;2022-12-01T14:57:29;20.50;;;12.87;;
1613;SDS011;800;48.824;9.346;2022-12-01T15:02:30;20.30;;;13.43;;
1613;SDS011;800;48.824;9.346;2022-12-01T15:07:42;19.93;;;12.63;;
1613;SDS011;800;48.824;9.346;2022-12-01T15:10:17;21.70;;;13.83;;
1613;SDS011;800;48.824;9.346;2022-12-01T15:12:43;16.80;;;12.43;;
1613;SDS011;800;48.824;9.346;2022-12-01T15:15:13;18.53;;;12.43;;
1613;SDS011;800;48.824;9.346;2022-12-01T15:17:40;18.50;;;12.63;;
1613;SDS011;800;48.824;9.346;2022-12-01T15:20:25;19.40;;;15.00;;
1613;SDS011;800;48.824;9.346;2022-12-01T15:23:07;21.43;;;15.73;;
1613;SDS011;800;48.824;9.346;2022-12-01T15:25:36;20.13;;;14.90;;
1613;SDS011;800;48.824;9.346;2022-12-01T15:28:20;19.10;;;14.10;;
1613;SDS011;800;48.824;9.346;2022-12-01T15:30:54;29.43;;;24.10;;
1613;SDS011;800;48.824;9.346;2022-12-01T15:33:25;24.73;;;20.50;;
1613;SDS011;800;48.824;9.346;2022-12-01T15:35:56;20.67;;;17.30;;
1613;SDS011;800;48.824;9.346;2022-12-01T15:38:41;22.57;;;18.03;;
1613;SDS011;800;48.824;9.346;2022-12-01T15:41:15;23.40;;;15.97;;
1613;SDS011;800;48.824;9.346;2022-12-01T15:43:42;23.80;;;17.67;;
1613;SDS011;800;48.824;9.346;2022-12-01T15:46:17;27.13;;;16.10;;
1613;SDS011;800;48.824;9.346;2022-12-01T15:48:43;20.90;;;15.23;;
1613;SDS011;800;48.824;9.346;2022-12-01T15:51:19;23.83;;;15.87;;
1613;SDS011;800;48.824;9.346;2022-12-01T15:56:15;22.30;;;15.63;;
1613;SDS011;800;48.824;9.346;2022-12-01T15:58:48;19.73;;;13.47;;
1613;SDS011;800;48.824;9.346;2022-12-01T16:01:19;18.90;;;13.80;;
1613;SDS011;800;48.824;9.346;2022-12-01T16:04:01;20.47;;;14.17;;
1613;SDS011;800;48.824;9.346;2022-12-01T16:06:41;31.20;;;19.07;;
1613;SDS011;800;48.824;9.346;2022-12-01T16:14:33;22.57;;;14.70;;
1613;SDS011;800;48.824;9.346;2022-12-01T16:17:00;20.40;;;14.60;;
1613;SDS011;800;48.824;9.346;2022-12-01T16:19:29;21.37;;;14.87;;
1613;SDS011;800;48.824;9.346;2022-12-01T16:24:35;20.90;;;15.00;;
1613;SDS011;800;48.824;9.346;2022-12-01T16:30:01;20.20;;;14.47;;
1613;SDS011;800;48.824;9.346;2022-12-01T16:32:39;21.77;;;14.30;;
1613;SDS011;800;48.824;9.346;2022-12-01T16:35:21;25.37;;;14.40;;
1613;SDS011;800;48.824;9.346;2022-12-01T16:37:47;21.30;;;14.30;;
1613;SDS011;800;48.824;9.346;2022-12-01T16:40:13;23.83;;;15.30;;
1613;SDS011;800;48.824;9.346;2022-12-01T16:42:40;21.30;;;15.10;;
1613;SDS011;800;48.824;9.346;2022-12-01T16:45:08;20.63;;;14.97;;
1613;SDS011;800;48.824;9.346;2022-12-01T16:47:37;21.03;;;14.07;;
1613;SDS011;800;48.824;9.346;2022-12-01T16:50:03;20.37;;;15.10;;
1613;SDS011;800;48.824;9.346;2022-12-01T16:52:29;22.67;;;15.53;;
1613;SDS011;800;48.824;9.346;2022-12-01T16:54:54;23.27;;;14.30;;
1613;SDS011;800;48.824;9.346;2022-12-01T16:57:20;25.17;;;14.73;;
1613;SDS011;800;48.824;9.346;2022-12-01T16:59:45;24.37;;;14.70;;
1613;SDS011;800;48.824;9.346;2022-12-01T17:02:11;21.73;;;14.80;;
1613;SDS011;800;48.824;9.346;2022-12-01T17:04:36;19.00;;;13.50;;
1613;SDS011;800;48.824;9.346;2022-12-01T17:07:02;20.47;;;15.80;;
1613;SDS011;800;48.824;9.346;2022-12-01T17:09:28;23.80;;;14.83;;
1613;SDS011;800;48.824;9.346;2022-12-01T17:11:54;23.57;;;15.43;;
1613;SDS011;800;48.824;9.346;2022-12-01T17:14:20;24.23;;;14.90;;
1613;SDS011;800;48.824;9.346;2022-12-01T17:16:47;21.77;;;14.97;;
1613;SDS011;800;48.824;9.346;2022-12-01T17:19:13;19.87;;;14.60;;
1613;SDS011;800;48.824;9.346;2022-12-01T17:21:39;22.23;;;14.23;;
1613;SDS011;800;48.824;9.346;2022-12-01T17:24:04;24.93;;;15.97;;
1613;SDS011;800;48.824;9.346;2022-12-01T17:26:30;19.53;;;15.00;;
1613;SDS011;800;48.824;9.346;2022-12-01T17:28:56;23.23;;;15.80;;
1613;SDS011;800;48.824;9.346;2022-12-01T17:31:21;20.97;;;15.47;;
1613;SDS011;800;48.824;9.346;2022-12-01T17:33:47;19.63;;;14.60;;
1613;SDS011;800;48.824;9.346;2022-12-01T17:36:14;23.80;;;16.43;;
1613;SDS011;800;48.824;9.346;2022-12-01T17:38:40;22.57;;;16.33;;
1613;SDS011;800;48.824;9.346;2022-12-01T17:41:10;20.83;;;14.70;;
1613;SDS011;800;48.824;9.346;2022-12-01T17:43:40;22.73;;;15.00;;
1613;SDS011;800;48.824;9.346;2022-12-01T17:46:07;22.60;;;16.80;;
1613;SDS011;800;48.824;9.346;2022-12-01T17:48:38;34.80;;;22.10;;
1613;SDS011;800;48.824;9.346;2022-12-01T17:51:06;32.10;;;22.00;;
1613;SDS011;800;48.824;9.346;2022-12-01T17:53:33;31.70;;;22.20;;
1613;SDS011;800;48.824;9.346;2022-12-01T17:55:59;29.03;;;20.00;;
1613;SDS011;800;48.824;9.346;2022-12-01T17:58:25;32.40;;;20.00;;